createdAt,value
2024-04-24T00:01:18.288Z,3.47
2024-04-24T00:03:44.953Z,3.33
2024-04-24T00:06:11.553Z,3.47
2024-04-24T00:08:38.105Z,3.33
2024-04-24T00:11:04.698Z,3.50
2024-04-24T00:13:31.315Z,7.47
2024-04-24T00:15:57.844Z,9.10
2024-04-24T00:18:24.839Z,4.25
2024-04-24T00:20:55.696Z,3.72
2024-04-24T00:23:22.255Z,3.92
2024-04-24T00:25:49.399Z,3.90
2024-04-24T00:28:15.929Z,3.80
2024-04-24T00:30:42.497Z,4.13
2024-04-24T00:33:11.115Z,3.72
2024-04-24T00:35:37.875Z,3.72
2024-04-24T00:38:04.579Z,4.03
2024-04-24T00:40:31.181Z,4.25
2024-04-24T00:42:57.710Z,4.65
2024-04-24T00:45:24.261Z,4.50
2024-04-24T00:47:52.243Z,4.03
2024-04-24T00:50:19.658Z,4.22
2024-04-24T00:52:46.481Z,4.25
2024-04-24T00:55:13.446Z,4.10
2024-04-24T00:57:41.776Z,4.20
2024-04-24T01:00:08.668Z,4.05
2024-04-24T01:02:35.438Z,4.38
2024-04-24T01:05:02.156Z,4.18
2024-04-24T01:07:28.792Z,4.05
2024-04-24T01:09:55.294Z,3.47
2024-04-24T01:12:21.858Z,3.88
2024-04-24T01:14:48.397Z,3.90
2024-04-24T01:17:18.978Z,4.00
2024-04-24T01:19:47.695Z,3.67
2024-04-24T01:22:41.185Z,3.80
2024-04-24T01:25:10.545Z,3.60
2024-04-24T01:27:37.245Z,3.65
2024-04-24T01:30:04.388Z,3.20
2024-04-24T01:32:31.061Z,4.20
2024-04-24T01:34:57.781Z,4.30
2024-04-24T01:37:24.333Z,3.92
2024-04-24T01:39:50.875Z,3.65
2024-04-24T01:42:17.407Z,3.47
2024-04-24T01:44:43.913Z,3.75
2024-04-24T01:47:10.535Z,3.80
2024-04-24T01:49:37.117Z,3.70
2024-04-24T01:52:03.750Z,3.50
2024-04-24T01:54:30.257Z,3.60
2024-04-24T01:56:56.763Z,4.03
2024-04-24T01:59:23.332Z,3.63
2024-04-24T02:01:50.552Z,3.90
2024-04-24T02:04:17.171Z,3.50
2024-04-24T02:06:43.692Z,3.90
2024-04-24T02:09:10.224Z,3.90
2024-04-24T02:11:36.878Z,3.70
2024-04-24T02:14:03.450Z,4.05
2024-04-24T02:16:30.076Z,3.55
2024-04-24T02:18:56.689Z,3.80
2024-04-24T02:21:23.298Z,3.40
2024-04-24T02:23:49.839Z,3.45
2024-04-24T02:26:16.400Z,3.45
2024-04-24T02:28:42.924Z,3.70
2024-04-24T02:31:10.569Z,3.22
2024-04-24T02:33:38.739Z,3.70
2024-04-24T02:36:05.403Z,3.40
2024-04-24T02:38:31.931Z,3.17
2024-04-24T02:40:58.517Z,3.80
2024-04-24T02:43:25.076Z,3.60
2024-04-24T02:45:51.593Z,3.40
2024-04-24T02:48:18.214Z,3.53
2024-04-24T02:50:44.862Z,3.42
2024-04-24T02:53:11.513Z,3.90
2024-04-24T02:55:38.045Z,3.45
2024-04-24T02:58:04.696Z,3.40
2024-04-24T03:00:31.257Z,3.70
2024-04-24T03:02:58.029Z,3.30
2024-04-24T03:05:24.792Z,3.72
2024-04-24T03:07:51.353Z,3.63
2024-04-24T03:10:17.927Z,3.47
2024-04-24T03:12:44.443Z,3.20
2024-04-24T03:15:11.002Z,3.60
2024-04-24T03:17:39.924Z,3.30
2024-04-24T03:20:07.140Z,3.40
2024-04-24T03:22:33.701Z,3.13
2024-04-24T03:25:00.251Z,3.50
2024-04-24T03:27:26.861Z,3.75
2024-04-24T03:29:53.357Z,3.50
2024-04-24T03:32:20.139Z,3.70
2024-04-24T03:34:46.734Z,3.53
2024-04-24T03:37:13.312Z,3.58
2024-04-24T03:39:39.839Z,3.90
2024-04-24T03:42:06.678Z,3.63
2024-04-24T03:44:33.223Z,3.60
2024-04-24T03:46:59.941Z,3.63
2024-04-24T03:49:26.499Z,3.45
2024-04-24T03:51:53.268Z,3.90
2024-04-24T03:54:19.790Z,3.67
2024-04-24T03:56:46.317Z,3.67
2024-04-24T03:59:12.857Z,3.58
2024-04-24T04:01:39.368Z,3.53
2024-04-24T04:04:05.968Z,3.63
2024-04-24T04:06:32.640Z,3.72
2024-04-24T04:08:59.174Z,4.47
2024-04-24T04:11:25.816Z,5.50
2024-04-24T04:13:55.013Z,4.68
2024-04-24T04:16:21.602Z,4.78
2024-04-24T04:18:48.181Z,4.70
2024-04-24T04:21:14.739Z,5.43
2024-04-24T04:23:41.277Z,4.47
2024-04-24T04:26:07.958Z,4.18
2024-04-24T04:28:34.550Z,4.30
2024-04-24T04:31:01.068Z,3.95
2024-04-24T04:33:27.674Z,3.88
2024-04-24T04:35:54.313Z,4.30
2024-04-24T04:38:20.998Z,3.65
2024-04-24T04:40:48.331Z,3.85
2024-04-24T04:43:14.855Z,3.72
2024-04-24T04:45:41.360Z,4.30
2024-04-24T04:48:08.696Z,4.25
2024-04-24T04:50:35.443Z,4.25
2024-04-24T04:53:02.196Z,4.40
2024-04-24T04:55:28.755Z,6.28
2024-04-24T04:57:55.396Z,8.43
2024-04-24T05:00:21.956Z,5.95
2024-04-24T05:02:48.618Z,4.78
2024-04-24T05:05:15.169Z,4.50
2024-04-24T05:07:41.758Z,4.18
2024-04-24T05:10:08.474Z,4.75
2024-04-24T05:12:35.017Z,4.50
2024-04-24T05:15:01.637Z,5.03
2024-04-24T05:17:28.254Z,8.85
2024-04-24T05:19:54.896Z,6.88
2024-04-24T05:22:22.262Z,4.80
2024-04-24T05:24:48.786Z,4.13
2024-04-24T05:27:33.789Z,5.00
2024-04-24T05:30:00.363Z,5.15
2024-04-24T05:32:27.067Z,5.13
2024-04-24T05:34:53.693Z,4.32
2024-04-24T05:37:20.290Z,4.32
2024-04-24T05:39:46.842Z,4.50
2024-04-24T05:42:13.407Z,4.13
2024-04-24T05:44:39.946Z,4.93
2024-04-24T05:47:06.515Z,4.53
2024-04-24T05:49:33.179Z,4.47
2024-04-24T05:51:59.976Z,7.40
2024-04-24T05:54:26.514Z,5.40
2024-04-24T05:56:53.025Z,7.10
2024-04-24T05:59:19.757Z,5.30
2024-04-24T06:01:46.283Z,4.68
2024-04-24T06:04:12.932Z,4.82
2024-04-24T06:06:39.537Z,4.80
2024-04-24T06:09:06.096Z,4.57
2024-04-24T06:11:32.737Z,4.40
2024-04-24T06:13:59.439Z,4.72
2024-04-24T06:16:25.952Z,4.72
2024-04-24T06:18:52.548Z,4.60
2024-04-24T06:21:19.124Z,5.07
2024-04-24T06:23:45.627Z,4.93
2024-04-24T06:26:12.198Z,4.30
2024-04-24T06:28:38.759Z,4.43
2024-04-24T06:31:05.263Z,4.50
2024-04-24T06:33:32.008Z,4.03
2024-04-24T06:35:58.576Z,4.18
2024-04-24T06:38:25.180Z,4.63
2024-04-24T06:40:51.811Z,4.88
2024-04-24T06:43:20.774Z,4.85
2024-04-24T06:45:47.304Z,5.15
2024-04-24T06:48:13.964Z,4.43
2024-04-24T06:50:41.991Z,4.32
2024-04-24T06:53:08.573Z,4.53
2024-04-24T06:55:37.713Z,4.55
2024-04-24T06:58:04.719Z,4.88
2024-04-24T07:00:31.645Z,4.80
2024-04-24T07:02:58.321Z,4.85
2024-04-24T07:05:24.946Z,4.57
2024-04-24T07:07:51.549Z,4.97
2024-04-24T07:10:18.088Z,4.80
2024-04-24T07:12:46.738Z,5.93
2024-04-24T07:15:15.156Z,6.80
2024-04-24T07:17:42.873Z,6.18
2024-04-24T07:20:09.721Z,5.60
2024-04-24T07:22:36.256Z,7.38
2024-04-24T07:25:02.786Z,9.43
2024-04-24T07:27:30.845Z,12.48
2024-04-24T07:29:59.214Z,6.53
2024-04-24T07:32:25.997Z,5.47
2024-04-24T07:34:52.598Z,5.03
2024-04-24T07:37:19.424Z,5.45
2024-04-24T07:39:45.944Z,5.10
2024-04-24T07:42:12.549Z,4.93
2024-04-24T07:44:44.075Z,5.47
2024-04-24T07:47:11.368Z,4.68
2024-04-24T07:49:37.990Z,5.25
2024-04-24T07:52:05.237Z,4.97
2024-04-24T07:54:31.909Z,5.07
2024-04-24T07:56:58.465Z,4.95
2024-04-24T07:59:25.090Z,5.53
2024-04-24T08:01:51.750Z,5.05
2024-04-24T08:04:18.488Z,6.35
2024-04-24T08:06:45.128Z,5.50
2024-04-24T08:09:12.081Z,5.60
2024-04-24T08:11:38.821Z,5.78
2024-04-24T08:14:07.195Z,6.30
2024-04-24T08:16:34.562Z,8.90
2024-04-24T08:19:01.268Z,7.60
2024-04-24T08:21:27.788Z,5.93
2024-04-24T08:23:55.220Z,6.00
2024-04-24T08:26:22.878Z,6.15
2024-04-24T08:28:49.759Z,5.38
2024-04-24T08:31:16.273Z,5.40
2024-04-24T08:33:42.961Z,5.00
2024-04-24T08:36:13.526Z,5.10
2024-04-24T08:38:41.074Z,5.22
2024-04-24T08:41:12.320Z,5.00
2024-04-24T08:43:40.851Z,5.50
2024-04-24T08:46:09.362Z,4.93
2024-04-24T08:48:36.641Z,4.80
2024-04-24T08:51:03.700Z,4.65
2024-04-24T08:53:32.892Z,4.90
2024-04-24T08:56:00.516Z,5.25
2024-04-24T08:58:29.120Z,5.38
2024-04-24T09:00:58.837Z,4.60
2024-04-24T09:03:32.427Z,4.90
2024-04-24T09:06:02.344Z,4.80
2024-04-24T09:08:32.428Z,4.90
2024-04-24T09:10:58.984Z,4.97
2024-04-24T09:13:25.798Z,4.80
2024-04-24T09:15:54.637Z,4.78
2024-04-24T09:18:21.237Z,4.90
2024-04-24T09:20:49.159Z,4.80
2024-04-24T09:23:18.661Z,4.57
2024-04-24T09:28:12.134Z,4.50
2024-04-24T09:30:39.110Z,4.72
2024-04-24T09:33:06.449Z,4.65
2024-04-24T09:35:33.155Z,3.90
2024-04-24T09:37:59.822Z,3.60
2024-04-24T09:40:28.309Z,3.70
2024-04-24T09:42:55.386Z,3.70
2024-04-24T09:45:22.730Z,3.75
2024-04-24T09:47:49.630Z,3.35
2024-04-24T09:50:16.377Z,3.55
2024-04-24T09:52:48.166Z,3.70
2024-04-24T09:55:15.397Z,3.83
2024-04-24T09:57:45.197Z,3.55
2024-04-24T10:00:13.777Z,3.33
2024-04-24T10:02:42.646Z,3.20
2024-04-24T10:05:16.221Z,3.00
2024-04-24T10:07:52.674Z,2.60
2024-04-24T10:10:20.069Z,2.75
2024-04-24T10:12:48.782Z,2.60
2024-04-24T10:15:23.663Z,2.40
2024-04-24T10:17:53.030Z,2.40
2024-04-24T10:20:25.695Z,2.20
2024-04-24T10:22:54.809Z,2.28
2024-04-24T10:25:22.763Z,2.30
2024-04-24T10:27:51.237Z,2.63
2024-04-24T10:30:18.633Z,2.90
2024-04-24T10:32:45.327Z,2.90
2024-04-24T10:35:12.677Z,3.63
2024-04-24T10:37:39.254Z,3.40
2024-04-24T10:40:12.492Z,4.22
2024-04-24T10:42:41.428Z,4.60
2024-04-24T10:45:09.097Z,5.15
2024-04-24T10:47:37.865Z,5.63
2024-04-24T10:50:14.350Z,5.93
2024-04-24T10:52:48.496Z,6.15
2024-04-24T10:55:18.988Z,7.53
2024-04-24T10:57:50.198Z,8.50
2024-04-24T11:00:18.844Z,7.47
2024-04-24T11:02:49.992Z,7.82
2024-04-24T11:05:18.885Z,9.40
2024-04-24T11:07:56.423Z,8.73
2024-04-24T11:10:24.530Z,8.55
2024-04-24T11:12:51.044Z,7.03
2024-04-24T11:15:22.747Z,7.82
2024-04-24T11:17:51.895Z,8.02
2024-04-24T11:20:19.807Z,6.13
2024-04-24T11:22:46.868Z,6.18
2024-04-24T11:25:14.426Z,6.13
2024-04-24T11:27:42.088Z,5.95
2024-04-24T11:30:13.891Z,6.05
2024-04-24T11:32:42.515Z,6.20
2024-04-24T11:35:10.662Z,7.05
2024-04-24T11:37:40.400Z,7.22
2024-04-24T11:40:10.740Z,7.45
2024-04-24T11:42:44.084Z,7.40
2024-04-24T11:45:10.730Z,6.93
2024-04-24T11:47:37.551Z,6.50
2024-04-24T11:50:04.893Z,6.95
2024-04-24T11:52:38.397Z,6.32
2024-04-24T11:55:06.263Z,6.63
2024-04-24T11:57:39.477Z,8.90
2024-04-24T12:00:07.787Z,11.32
2024-04-24T12:02:35.792Z,6.53
2024-04-24T12:05:06.737Z,7.03
2024-04-24T12:07:43.311Z,6.38
2024-04-24T12:10:09.920Z,6.43
2024-04-24T12:12:36.449Z,6.65
2024-04-24T12:15:03.315Z,6.55
2024-04-24T12:17:29.916Z,7.10
2024-04-24T12:19:56.653Z,7.03
2024-04-24T12:22:23.270Z,6.68
2024-04-24T12:24:49.862Z,6.72
2024-04-24T12:27:17.175Z,6.70
2024-04-24T12:29:45.108Z,6.68
2024-04-24T12:32:11.718Z,6.75
2024-04-24T12:34:38.336Z,5.95
2024-04-24T12:37:05.108Z,6.38
2024-04-24T12:39:31.640Z,6.32
2024-04-24T12:41:58.167Z,6.20
2024-04-24T12:44:24.823Z,6.55
2024-04-24T12:46:51.369Z,5.95
2024-04-24T12:49:17.967Z,6.53
2024-04-24T12:51:44.905Z,6.55
2024-04-24T12:54:11.469Z,6.60
2024-04-24T12:56:38.049Z,8.38
2024-04-24T12:59:07.191Z,8.73
2024-04-24T13:01:33.773Z,9.85
2024-04-24T13:04:01.262Z,10.63
2024-04-24T13:06:28.161Z,10.18
2024-04-24T13:08:56.975Z,10.52
2024-04-24T13:11:23.652Z,10.75
2024-04-24T13:13:50.232Z,9.93
2024-04-24T13:16:16.757Z,9.77
2024-04-24T13:18:44.034Z,9.38
2024-04-24T13:21:10.931Z,8.98
2024-04-24T13:23:37.468Z,8.77
2024-04-24T13:26:04.280Z,9.52
2024-04-24T13:28:33.574Z,8.90
2024-04-24T13:31:03.317Z,10.30
2024-04-24T13:33:31.449Z,9.20
2024-04-24T13:35:58.026Z,9.88
2024-04-24T13:38:24.668Z,9.88
2024-04-24T13:40:51.206Z,9.75
2024-04-24T13:43:17.749Z,9.90
2024-04-24T13:45:44.524Z,9.60
2024-04-24T13:48:11.201Z,9.82
2024-04-24T13:50:38.050Z,10.10
2024-04-24T13:53:04.828Z,10.18
2024-04-24T13:55:31.380Z,10.48
2024-04-24T13:57:58.016Z,11.18
2024-04-24T14:00:26.301Z,10.93
2024-04-24T14:02:53.937Z,11.52
2024-04-24T14:05:23.472Z,11.60
2024-04-24T14:10:16.911Z,11.43
2024-04-24T14:12:43.454Z,11.60
2024-04-24T14:15:10.087Z,11.88
2024-04-24T14:17:38.944Z,12.02
2024-04-24T14:20:06.218Z,11.60
2024-04-24T14:22:32.813Z,12.73
2024-04-24T14:24:59.393Z,12.18
2024-04-24T14:27:26.480Z,12.27
2024-04-24T14:29:53.029Z,12.82
2024-04-24T14:32:19.886Z,12.93
2024-04-24T14:34:46.929Z,12.45
2024-04-24T14:37:13.477Z,13.60
2024-04-24T14:39:40.083Z,13.02
2024-04-24T14:42:07.027Z,13.18
2024-04-24T14:44:33.680Z,13.32
2024-04-24T14:47:00.282Z,13.43
2024-04-24T14:49:28.639Z,12.68
2024-04-24T14:51:55.215Z,12.73
2024-04-24T14:54:21.749Z,13.15
2024-04-24T14:56:48.334Z,13.07
2024-04-24T14:59:15.151Z,13.05
2024-04-24T15:01:41.840Z,12.70
2024-04-24T15:04:08.798Z,13.73
2024-04-24T15:06:36.843Z,13.15
2024-04-24T15:09:03.437Z,12.73
2024-04-24T15:11:30.294Z,11.55
2024-04-24T15:13:56.877Z,11.57
2024-04-24T15:16:23.399Z,11.80
2024-04-24T15:18:49.963Z,11.52
2024-04-24T15:21:16.523Z,11.23
2024-04-24T15:23:46.280Z,11.60
2024-04-24T15:26:14.655Z,10.65
2024-04-24T15:28:41.212Z,11.40
2024-04-24T15:31:10.623Z,11.10
2024-04-24T15:33:40.266Z,10.75
2024-04-24T15:36:08.549Z,10.35
2024-04-24T15:38:35.186Z,9.90
2024-04-24T15:41:01.872Z,9.60
2024-04-24T15:43:28.415Z,9.13
2024-04-24T15:45:55.938Z,9.13
2024-04-24T15:48:22.556Z,8.88
2024-04-24T15:50:49.381Z,8.73
2024-04-24T15:53:16.344Z,7.82
2024-04-24T15:55:43.322Z,6.63
2024-04-24T15:58:10.232Z,6.18
2024-04-24T16:00:37.186Z,6.43
2024-04-24T16:03:04.872Z,6.05
2024-04-24T16:05:32.260Z,6.28
2024-04-24T16:07:58.947Z,6.63
2024-04-24T16:10:25.485Z,6.57
2024-04-24T16:12:51.987Z,7.32
2024-04-24T16:15:19.258Z,7.28
2024-04-24T16:17:46.008Z,7.10
2024-04-24T16:20:14.728Z,6.35
2024-04-24T16:22:41.749Z,5.97
2024-04-24T16:25:08.546Z,6.57
2024-04-24T16:27:35.141Z,6.18
2024-04-24T16:30:01.751Z,5.47
2024-04-24T16:32:28.398Z,5.95
2024-04-24T16:34:55.033Z,6.80
2024-04-24T16:37:21.576Z,7.38
2024-04-24T16:39:48.921Z,7.35
2024-04-24T16:42:15.474Z,7.15
2024-04-24T16:44:42.022Z,7.30
2024-04-24T16:47:08.628Z,5.93
2024-04-24T16:49:37.581Z,5.55
2024-04-24T16:52:09.097Z,5.13
2024-04-24T16:54:37.603Z,5.22
2024-04-24T16:57:05.187Z,5.30
2024-04-24T16:59:31.846Z,4.88
2024-04-24T17:01:58.691Z,5.00
2024-04-24T17:04:28.403Z,4.60
2024-04-24T17:06:54.952Z,4.97
2024-04-24T17:09:23.060Z,4.68
2024-04-24T17:11:49.685Z,4.43
2024-04-24T17:14:16.546Z,4.43
2024-04-24T17:16:43.126Z,4.32
2024-04-24T17:19:09.787Z,3.75
2024-04-24T17:21:36.462Z,3.50
2024-04-24T17:24:03.604Z,3.58
2024-04-24T17:26:36.555Z,3.05
2024-04-24T17:29:05.282Z,3.80
2024-04-24T17:31:31.845Z,3.38
2024-04-24T17:33:58.436Z,3.60
2024-04-24T17:36:24.957Z,3.55
2024-04-24T17:38:51.857Z,3.20
2024-04-24T17:41:18.391Z,3.30
2024-04-24T17:43:45.012Z,3.55
2024-04-24T17:46:11.552Z,3.05
2024-04-24T17:48:38.270Z,3.45
2024-04-24T17:51:05.252Z,3.10
2024-04-24T17:53:31.997Z,3.17
2024-04-24T17:55:58.677Z,3.03
2024-04-24T17:58:27.035Z,3.70
2024-04-24T18:00:54.439Z,3.50
2024-04-24T18:03:22.044Z,3.72
2024-04-24T18:05:49.156Z,3.40
2024-04-24T18:10:46.290Z,3.63
2024-04-24T18:13:13.067Z,4.00
2024-04-24T18:15:40.394Z,4.05
2024-04-24T18:18:07.359Z,4.50
2024-04-24T18:20:34.523Z,4.18
2024-04-24T18:23:01.239Z,4.18
2024-04-24T18:25:29.363Z,4.50
2024-04-24T18:27:56.036Z,4.30
2024-04-24T18:30:22.852Z,4.80
2024-04-24T18:32:49.659Z,4.53
2024-04-24T18:35:17.666Z,4.68
2024-04-24T18:37:44.357Z,4.90
2024-04-24T18:40:11.565Z,4.65
2024-04-24T18:42:38.453Z,5.00
2024-04-24T18:45:05.176Z,5.28
2024-04-24T18:47:38.031Z,5.20
2024-04-24T18:50:09.704Z,5.60
2024-04-24T18:52:40.058Z,5.63
2024-04-24T18:55:06.857Z,5.40
2024-04-24T18:57:33.852Z,5.43
2024-04-24T19:00:00.738Z,5.25
2024-04-24T19:02:27.800Z,5.53
2024-04-24T19:04:54.397Z,5.22
2024-04-24T19:07:20.937Z,5.68
2024-04-24T19:09:47.668Z,4.97
2024-04-24T19:12:14.179Z,5.53
2024-04-24T19:14:40.918Z,6.75
2024-04-24T19:17:07.521Z,5.45
2024-04-24T19:19:34.122Z,5.68
2024-04-24T19:22:00.671Z,5.68
2024-04-24T19:24:27.248Z,5.82
2024-04-24T19:26:53.874Z,5.82
2024-04-24T19:29:20.441Z,5.82
2024-04-24T19:31:47.130Z,5.72
2024-04-24T19:34:13.684Z,6.80
2024-04-24T19:36:40.228Z,6.28
2024-04-24T19:39:06.789Z,6.20
2024-04-24T19:41:33.400Z,5.68
2024-04-24T19:44:00.088Z,6.20
2024-04-24T19:46:26.795Z,7.82
2024-04-24T19:48:53.984Z,6.10
2024-04-24T19:51:21.141Z,5.72
2024-04-24T19:53:47.698Z,7.18
2024-04-24T19:56:14.400Z,7.30
2024-04-24T19:58:41.575Z,6.20
2024-04-24T20:01:09.905Z,5.80
2024-04-24T20:03:37.202Z,5.78
2024-04-24T20:06:05.386Z,5.63
2024-04-24T20:08:32.243Z,5.57
2024-04-24T20:11:05.751Z,5.55
2024-04-24T20:13:32.933Z,5.47
2024-04-24T20:16:03.784Z,5.30
2024-04-24T20:18:30.480Z,5.63
2024-04-24T20:20:57.114Z,5.43
2024-04-24T20:23:23.676Z,5.32
2024-04-24T20:25:50.518Z,6.03
2024-04-24T20:28:17.062Z,5.97
2024-04-24T20:30:43.618Z,5.85
2024-04-24T20:33:10.555Z,5.40
2024-04-24T20:35:37.483Z,5.63
2024-04-24T20:38:04.327Z,6.63
2024-04-24T20:40:31.230Z,5.97
2024-04-24T20:42:57.783Z,5.63
2024-04-24T20:45:24.382Z,5.35
2024-04-24T20:47:51.108Z,5.22
2024-04-24T20:50:18.660Z,4.85
2024-04-24T20:52:45.209Z,5.10
2024-04-24T20:55:11.734Z,5.35
2024-04-24T20:57:38.226Z,5.18
2024-04-24T21:00:05.072Z,7.35
2024-04-24T21:02:31.722Z,5.15
2024-04-24T21:04:58.318Z,5.60
2024-04-24T21:07:24.823Z,6.30
2024-04-24T21:09:51.405Z,9.32
2024-04-24T21:12:18.843Z,8.45
2024-04-24T21:14:45.431Z,7.95
2024-04-24T21:17:11.971Z,5.18
2024-04-24T21:19:38.496Z,4.80
2024-04-24T21:22:05.243Z,5.03
2024-04-24T21:24:31.919Z,4.55
2024-04-24T21:26:58.673Z,4.53
2024-04-24T21:29:25.224Z,4.60
2024-04-24T21:31:52.227Z,4.43
2024-04-24T21:34:18.835Z,4.30
2024-04-24T21:36:45.404Z,4.22
2024-04-24T21:39:13.482Z,4.43
2024-04-24T21:41:39.993Z,4.57
2024-04-24T21:44:06.597Z,4.60
2024-04-24T21:46:33.199Z,4.07
2024-04-24T21:48:59.706Z,4.15
2024-04-24T21:51:26.224Z,4.38
2024-04-24T21:53:55.753Z,4.10
2024-04-24T21:56:23.930Z,4.10
2024-04-24T21:58:55.951Z,4.10
2024-04-24T22:01:22.804Z,4.07
2024-04-24T22:03:49.669Z,3.80
2024-04-24T22:06:20.236Z,3.97
2024-04-24T22:08:47.690Z,3.92
2024-04-24T22:11:14.481Z,4.25
2024-04-24T22:13:41.043Z,5.90
2024-04-24T22:16:07.665Z,9.18
2024-04-24T22:18:35.722Z,6.57
2024-04-24T22:21:02.493Z,9.38
2024-04-24T22:23:29.843Z,6.00
2024-04-24T22:25:56.417Z,5.20
2024-04-24T22:28:22.968Z,5.43
2024-04-24T22:30:49.505Z,5.35
2024-04-24T22:33:16.245Z,5.20
2024-04-24T22:35:42.991Z,14.95
2024-04-24T22:38:11.955Z,9.65
2024-04-24T22:40:38.714Z,8.15
2024-04-24T22:43:05.241Z,6.22
2024-04-24T22:45:31.757Z,5.00
2024-04-24T22:47:58.338Z,4.90
2024-04-24T22:50:24.980Z,4.63
2024-04-24T22:52:51.504Z,5.10
2024-04-24T22:55:18.005Z,4.88
2024-04-24T22:57:44.563Z,5.00
2024-04-24T23:00:18.688Z,4.78
2024-04-24T23:02:45.468Z,4.88
2024-04-24T23:05:12.223Z,4.70
2024-04-24T23:07:39.072Z,4.72
2024-04-24T23:10:05.824Z,4.28
2024-04-24T23:12:32.369Z,20.23
2024-04-24T23:14:59.040Z,12.90
2024-04-24T23:17:25.680Z,11.80
2024-04-24T23:19:52.279Z,5.45
2024-04-24T23:22:18.846Z,7.15
2024-04-24T23:24:45.445Z,7.60
2024-04-24T23:27:11.971Z,9.57
2024-04-24T23:29:38.527Z,7.35
2024-04-24T23:32:05.906Z,6.55
2024-04-24T23:34:32.563Z,6.60
2024-04-24T23:36:59.086Z,7.18
2024-04-24T23:39:25.632Z,5.80
2024-04-24T23:41:52.145Z,6.30
2024-04-24T23:44:18.762Z,6.63
2024-04-24T23:46:45.380Z,6.97
2024-04-24T23:49:11.904Z,7.78
2024-04-24T23:51:38.418Z,7.45
2024-04-24T23:54:04.958Z,7.78
2024-04-24T23:56:31.484Z,8.82
2024-04-24T23:58:58.610Z,6.90
